createdAt,value
2023-03-12T00:02:16.312Z,5.30
2023-03-12T00:04:50.267Z,5.30
2023-03-12T00:07:23.778Z,5.30
2023-03-12T00:09:58.064Z,5.30
2023-03-12T00:12:33.031Z,5.60
2023-03-12T00:15:09.043Z,5.30
2023-03-12T00:17:44.129Z,5.30
2023-03-12T00:20:20.083Z,5.30
2023-03-12T00:22:53.967Z,5.30
2023-03-12T00:25:27.980Z,5.30
2023-03-12T00:28:01.550Z,5.30
2023-03-12T00:30:35.465Z,5.30
2023-03-12T00:33:11.381Z,5.20
2023-03-12T00:35:45.211Z,5.30
2023-03-12T00:38:19.230Z,5.20
2023-03-12T00:40:52.983Z,5.20
2023-03-12T00:43:26.757Z,5.20
2023-03-12T00:46:01.844Z,5.20
2023-03-12T00:48:37.142Z,5.20
2023-03-12T00:51:12.731Z,5.20
2023-03-12T00:53:46.752Z,5.20
2023-03-12T00:56:20.528Z,5.20
2023-03-12T00:58:54.226Z,5.20
2023-03-12T01:01:29.314Z,5.20
2023-03-12T01:04:04.898Z,5.20
2023-03-12T01:06:38.996Z,5.20
2023-03-12T01:09:12.733Z,5.20
2023-03-12T01:11:46.185Z,5.20
2023-03-12T01:14:19.899Z,5.20
2023-03-12T01:16:53.606Z,5.20
2023-03-12T01:19:28.656Z,5.20
2023-03-12T01:22:02.341Z,5.20
2023-03-12T01:24:37.802Z,5.20
2023-03-12T01:27:12.121Z,5.20
2023-03-12T01:29:50.081Z,5.20
2023-03-12T01:32:23.879Z,5.20
2023-03-12T01:35:01.710Z,5.30
2023-03-12T01:37:35.887Z,5.20
2023-03-12T01:40:14.831Z,5.20
2023-03-12T01:42:54.915Z,5.20
2023-03-12T01:46:16.107Z,5.20
2023-03-12T01:48:57.300Z,5.20
2023-03-12T01:51:39.144Z,5.20
2023-03-12T01:54:19.880Z,5.20
2023-03-12T01:56:55.953Z,5.20
2023-03-12T01:59:37.194Z,5.20
2023-03-12T02:02:12.423Z,5.20
2023-03-12T02:04:48.490Z,5.20
2023-03-12T02:07:23.595Z,5.30
2023-03-12T02:09:57.355Z,5.20
2023-03-12T02:12:31.199Z,5.30
2023-03-12T02:15:05.721Z,5.30
2023-03-12T02:17:40.767Z,5.30
2023-03-12T02:20:22.967Z,5.30
2023-03-12T02:23:07.668Z,5.30
2023-03-12T02:25:47.838Z,5.30
2023-03-12T02:28:27.011Z,5.30
2023-03-12T02:31:07.429Z,5.30
2023-03-12T02:33:41.864Z,5.30
2023-03-12T02:36:15.447Z,5.30
2023-03-12T02:38:51.079Z,5.40
2023-03-12T02:41:31.869Z,5.40
2023-03-12T02:44:09.455Z,5.40
2023-03-12T02:46:46.273Z,5.60
2023-03-12T02:49:23.185Z,5.40
2023-03-12T02:51:57.345Z,5.50
2023-03-12T02:54:31.996Z,5.40
2023-03-12T02:57:06.952Z,5.40
2023-03-12T02:59:40.548Z,5.40
2023-03-12T03:02:14.418Z,5.50
2023-03-12T03:04:48.236Z,5.40
2023-03-12T03:07:22.623Z,5.50
2023-03-12T03:09:56.217Z,5.50
2023-03-12T03:12:31.316Z,5.50
2023-03-12T03:15:06.454Z,5.50
2023-03-12T03:17:40.299Z,5.50
2023-03-12T03:20:14.995Z,5.50
2023-03-12T03:22:48.893Z,5.50
2023-03-12T03:25:23.807Z,5.50
2023-03-12T03:27:59.386Z,5.50
2023-03-12T03:30:33.972Z,5.50
2023-03-12T03:33:07.534Z,5.50
2023-03-12T03:35:41.418Z,5.50
2023-03-12T03:38:15.425Z,5.50
2023-03-12T03:40:49.357Z,5.50
2023-03-12T03:43:25.236Z,5.50
2023-03-12T03:46:00.053Z,5.50
2023-03-12T03:48:35.396Z,5.50
2023-03-12T03:51:12.024Z,5.60
2023-03-12T03:53:46.666Z,5.60
2023-03-12T03:56:21.284Z,5.60
2023-03-12T03:58:56.436Z,5.60
2023-03-12T04:01:31.394Z,5.60
2023-03-12T04:04:05.899Z,5.60
2023-03-12T04:06:40.052Z,5.60
2023-03-12T04:09:13.954Z,5.60
2023-03-12T04:11:47.852Z,5.60
2023-03-12T04:14:23.238Z,5.60
2023-03-12T04:16:57.136Z,5.60
2023-03-12T04:19:30.766Z,5.60
2023-03-12T04:22:04.396Z,5.70
2023-03-12T04:24:38.472Z,5.60
2023-03-12T04:27:12.215Z,5.70
2023-03-12T04:29:47.584Z,5.70
2023-03-12T04:32:21.876Z,5.70
2023-03-12T04:34:55.722Z,5.70
2023-03-12T04:37:29.322Z,5.70
2023-03-12T04:40:07.689Z,5.80
2023-03-12T04:42:42.293Z,6.00
2023-03-12T04:45:17.722Z,5.80
2023-03-12T04:47:51.587Z,5.80
2023-03-12T04:50:25.659Z,5.80
2023-03-12T04:52:59.281Z,5.80
2023-03-12T04:55:32.905Z,5.80
2023-03-12T04:58:07.136Z,5.80
2023-03-12T05:00:43.485Z,6.00
2023-03-12T05:03:18.464Z,5.80
2023-03-12T05:05:52.633Z,5.90
2023-03-12T05:08:26.568Z,5.90
2023-03-12T05:11:00.580Z,5.80
2023-03-12T05:13:34.259Z,5.90
2023-03-12T05:16:10.905Z,6.20
2023-03-12T05:18:46.536Z,6.00
2023-03-12T05:21:22.017Z,5.90
2023-03-12T05:23:56.038Z,5.90
2023-03-12T05:26:33.683Z,5.90
2023-03-12T05:29:08.771Z,5.90
2023-03-12T05:31:45.426Z,5.90
2023-03-12T05:34:19.419Z,6.20
2023-03-12T05:36:54.488Z,6.00
2023-03-12T05:39:29.054Z,5.90
2023-03-12T05:42:03.009Z,6.10
2023-03-12T05:44:38.978Z,6.00
2023-03-12T05:47:14.182Z,6.00
2023-03-12T05:49:48.399Z,6.00
2023-03-12T05:52:22.457Z,6.30
2023-03-12T05:54:56.637Z,6.00
2023-03-12T05:57:30.801Z,6.00
2023-03-12T06:00:06.899Z,6.20
2023-03-12T06:02:42.642Z,6.10
2023-03-12T06:05:16.289Z,6.10
2023-03-12T06:07:50.150Z,6.00
2023-03-12T06:10:24.132Z,6.00
2023-03-12T06:12:59.261Z,6.10
2023-03-12T06:15:33.417Z,6.10
2023-03-12T06:18:08.978Z,6.10
2023-03-12T06:20:43.012Z,6.10
2023-03-12T06:23:16.659Z,6.10
2023-03-12T06:25:50.332Z,6.10
2023-03-12T06:28:25.937Z,6.10
2023-03-12T06:31:01.218Z,6.10
2023-03-12T06:33:37.274Z,6.20
2023-03-12T06:36:12.780Z,6.00
2023-03-12T06:38:46.492Z,6.20
2023-03-12T06:41:22.024Z,6.00
2023-03-12T06:43:56.084Z,6.20
2023-03-12T06:46:29.610Z,6.10
2023-03-12T06:49:04.573Z,6.10
2023-03-12T06:51:38.862Z,6.10
2023-03-12T06:54:12.738Z,6.10
2023-03-12T06:56:47.725Z,6.10
2023-03-12T06:59:22.130Z,6.10
2023-03-12T07:01:56.037Z,6.10
2023-03-12T07:04:32.769Z,6.10
2023-03-12T07:07:09.012Z,6.10
2023-03-12T07:09:42.799Z,6.20
2023-03-12T07:12:16.413Z,6.20
2023-03-12T07:14:49.901Z,6.20
2023-03-12T07:17:24.664Z,6.20
2023-03-12T07:19:59.939Z,6.20
2023-03-12T07:22:34.420Z,6.10
2023-03-12T07:25:09.069Z,6.20
2023-03-12T07:27:42.853Z,6.20
2023-03-12T07:30:16.908Z,6.20
2023-03-12T07:32:50.643Z,6.20
2023-03-12T07:35:26.250Z,6.20
2023-03-12T07:38:00.343Z,6.20
2023-03-12T07:40:35.480Z,6.20
2023-03-12T07:43:12.277Z,6.30
2023-03-12T07:45:47.027Z,6.20
2023-03-12T07:48:20.992Z,6.30
2023-03-12T07:50:56.826Z,6.30
2023-03-12T07:53:30.751Z,6.30
2023-03-12T07:56:05.041Z,6.30
2023-03-12T07:58:39.477Z,6.50
2023-03-12T08:01:13.710Z,6.30
2023-03-12T08:03:47.634Z,6.30
2023-03-12T08:06:23.012Z,6.40
2023-03-12T08:08:57.321Z,6.40
2023-03-12T08:11:33.971Z,6.40
2023-03-12T08:14:07.832Z,6.40
2023-03-12T08:16:43.005Z,6.40
2023-03-12T08:19:16.976Z,6.40
2023-03-12T08:21:53.272Z,6.50
2023-03-12T08:24:26.809Z,6.50
2023-03-12T08:27:01.150Z,6.50
2023-03-12T08:29:35.101Z,6.50
2023-03-12T08:32:12.032Z,6.60
2023-03-12T08:34:45.759Z,6.60
2023-03-12T08:37:21.247Z,6.60
2023-03-12T08:39:54.769Z,6.60
2023-03-12T08:42:28.272Z,6.90
2023-03-12T08:45:01.933Z,6.60
2023-03-12T08:47:35.813Z,6.70
2023-03-12T08:50:12.183Z,6.70
2023-03-12T08:52:47.651Z,6.70
2023-03-12T08:55:21.588Z,6.70
2023-03-12T08:57:57.548Z,6.80
2023-03-12T09:00:31.674Z,6.80
2023-03-12T09:03:05.634Z,6.90
2023-03-12T09:05:39.299Z,6.90
2023-03-12T09:08:14.482Z,6.90
2023-03-12T09:10:51.393Z,7.00
2023-03-12T09:13:27.308Z,7.00
2023-03-12T09:16:06.661Z,7.00
2023-03-12T09:18:40.174Z,7.10
2023-03-12T09:21:14.284Z,7.10
2023-03-12T09:23:49.490Z,7.20
2023-03-12T09:26:26.098Z,7.30
2023-03-12T09:29:00.002Z,7.30
2023-03-12T09:31:34.785Z,7.30
2023-03-12T09:34:08.608Z,7.40
2023-03-12T09:36:42.371Z,7.40
2023-03-12T09:39:17.889Z,7.40
2023-03-12T09:41:53.478Z,7.50
2023-03-12T09:44:37.383Z,7.50
2023-03-12T09:47:24.378Z,7.50
2023-03-12T09:50:05.159Z,7.50
2023-03-12T09:52:50.674Z,7.60
2023-03-12T09:55:26.969Z,7.60
2023-03-12T09:58:00.841Z,7.60
2023-03-12T10:00:37.257Z,7.60
2023-03-12T10:03:43.271Z,7.60
2023-03-12T10:06:21.146Z,7.70
2023-03-12T10:09:16.128Z,7.70
2023-03-12T10:12:00.440Z,7.70
2023-03-12T10:14:48.480Z,7.80
2023-03-12T10:17:45.325Z,7.70
2023-03-12T10:20:52.747Z,7.80
2023-03-12T10:23:46.051Z,7.90
2023-03-12T10:26:27.069Z,7.90
2023-03-12T10:29:12.632Z,7.90
2023-03-12T10:31:56.746Z,8.00
2023-03-12T10:34:40.649Z,8.00
2023-03-12T10:37:22.748Z,8.10
2023-03-12T10:40:00.894Z,8.10
2023-03-12T10:42:34.842Z,8.20
2023-03-12T10:45:27.623Z,8.20
2023-03-12T10:48:07.201Z,8.30
2023-03-12T10:50:42.665Z,8.30
2023-03-12T10:53:29.285Z,8.60
2023-03-12T10:56:09.236Z,8.40
2023-03-12T10:58:45.071Z,8.50
2023-03-12T11:01:25.420Z,8.50
2023-03-12T11:04:18.289Z,8.50
2023-03-12T11:07:23.695Z,8.60
2023-03-12T11:10:21.324Z,8.80
2023-03-12T11:13:22.522Z,8.70
2023-03-12T11:15:59.834Z,8.70
2023-03-12T11:18:36.786Z,8.70
2023-03-12T11:21:20.834Z,8.80
2023-03-12T11:24:12.014Z,9.10
2023-03-12T11:26:52.557Z,8.80
2023-03-12T11:29:31.877Z,9.10
2023-03-12T11:32:17.173Z,8.90
2023-03-12T11:34:53.511Z,8.90
2023-03-12T11:37:45.630Z,8.90
2023-03-12T11:40:34.511Z,9.00
2023-03-12T11:43:45.338Z,9.00
2023-03-12T11:46:44.087Z,9.00
2023-03-12T11:49:38.039Z,9.10
2023-03-12T11:52:24.050Z,9.10
2023-03-12T11:55:20.407Z,9.40
2023-03-12T11:58:22.139Z,9.20
2023-03-12T12:01:11.226Z,9.30
2023-03-12T12:04:30.029Z,9.30
2023-03-12T12:07:20.193Z,9.50
2023-03-12T12:10:04.647Z,9.50
2023-03-12T12:12:56.035Z,9.50
2023-03-12T12:15:40.612Z,9.60
2023-03-12T12:18:51.030Z,9.70
2023-03-12T12:21:46.779Z,9.90
2023-03-12T12:24:40.011Z,9.90
2023-03-12T12:27:22.093Z,9.90
2023-03-12T12:30:16.362Z,10.00
2023-03-12T12:33:15.854Z,10.10
2023-03-12T12:35:50.168Z,10.10
2023-03-12T12:38:33.918Z,10.30
2023-03-12T12:41:15.313Z,10.20
2023-03-12T12:43:52.475Z,10.30
2023-03-12T12:46:32.063Z,10.30
2023-03-12T12:49:13.762Z,10.40
2023-03-12T12:51:54.696Z,10.40
2023-03-12T12:54:36.655Z,10.50
2023-03-12T12:57:21.430Z,10.80
2023-03-12T13:00:20.854Z,10.60
2023-03-12T13:02:57.804Z,10.60
2023-03-12T13:05:47.993Z,10.70
2023-03-12T13:09:01.431Z,10.80
2023-03-12T13:11:46.643Z,10.80
2023-03-12T13:14:39.971Z,10.80
2023-03-12T13:17:32.853Z,10.90
2023-03-12T13:20:18.597Z,11.00
2023-03-12T13:23:09.778Z,11.00
2023-03-12T13:25:58.647Z,11.10
2023-03-12T13:28:42.056Z,11.20
2023-03-12T13:31:39.187Z,11.20
2023-03-12T13:34:46.428Z,11.30
2023-03-12T13:37:57.880Z,11.40
2023-03-12T13:41:08.409Z,11.50
2023-03-12T13:43:54.698Z,11.60
2023-03-12T13:46:43.565Z,11.70
2023-03-12T13:49:21.111Z,11.80
2023-03-12T13:52:02.847Z,11.90
2023-03-12T13:54:45.147Z,12.00
2023-03-12T13:57:38.989Z,12.10
2023-03-12T14:00:21.191Z,12.10
2023-03-12T14:03:03.198Z,12.20
2023-03-12T14:05:53.661Z,12.20
2023-03-12T14:08:50.236Z,12.30
2023-03-12T14:11:45.949Z,12.60
2023-03-12T14:15:05.519Z,12.40
2023-03-12T14:17:42.654Z,12.50
2023-03-12T14:20:23.685Z,12.50
2023-03-12T14:23:05.354Z,12.60
2023-03-12T14:25:44.453Z,12.60
2023-03-12T14:28:22.751Z,12.70
2023-03-12T14:31:02.812Z,12.70
2023-03-12T14:33:51.872Z,12.80
2023-03-12T14:36:33.855Z,12.90
2023-03-12T14:39:25.359Z,12.90
2023-03-12T14:42:05.074Z,13.00
2023-03-12T14:44:40.837Z,13.10
2023-03-12T14:47:22.224Z,13.00
2023-03-12T14:49:59.371Z,13.00
2023-03-12T14:52:38.156Z,13.00
2023-03-12T14:55:18.781Z,13.10
2023-03-12T14:58:06.527Z,13.10
2023-03-12T15:00:40.281Z,13.10
2023-03-12T15:03:18.525Z,13.10
2023-03-12T15:05:53.635Z,13.30
2023-03-12T15:08:30.097Z,13.10
2023-03-12T15:11:03.797Z,13.10
2023-03-12T15:13:41.590Z,13.20
2023-03-12T15:16:15.614Z,13.30
2023-03-12T15:18:50.522Z,13.20
2023-03-12T15:21:24.774Z,13.20
2023-03-12T15:24:00.175Z,13.30
2023-03-12T15:26:38.224Z,13.30
2023-03-12T15:29:30.360Z,13.30
2023-03-12T15:32:15.431Z,13.30
2023-03-12T15:34:50.933Z,13.40
2023-03-12T15:37:32.565Z,13.40
2023-03-12T15:40:21.566Z,13.40
2023-03-12T15:43:01.933Z,13.40
2023-03-12T15:45:40.430Z,13.50
2023-03-12T15:48:25.180Z,13.50
2023-03-12T15:50:59.273Z,13.50
2023-03-12T15:53:35.887Z,13.50
2023-03-12T15:56:25.095Z,13.50
2023-03-12T15:59:23.982Z,13.50
2023-03-12T16:01:58.133Z,13.60
2023-03-12T16:04:31.866Z,13.50
2023-03-12T16:07:14.023Z,13.60
2023-03-12T16:09:47.690Z,13.60
2023-03-12T16:12:23.624Z,13.60
2023-03-12T16:14:57.641Z,13.60
2023-03-12T16:17:31.927Z,13.60
2023-03-12T16:20:06.424Z,13.60
2023-03-12T16:22:40.337Z,13.60
2023-03-12T16:25:14.322Z,13.60
2023-03-12T16:27:53.042Z,13.60
2023-03-12T16:30:31.357Z,13.60
2023-03-12T16:33:09.339Z,13.70
2023-03-12T16:35:43.564Z,13.70
2023-03-12T16:38:17.788Z,13.70
2023-03-12T16:40:53.920Z,13.70
2023-03-12T16:43:31.336Z,13.70
2023-03-12T16:46:09.670Z,13.70
2023-03-12T16:48:43.604Z,13.70
2023-03-12T16:51:19.303Z,13.70
2023-03-12T16:54:07.415Z,13.70
2023-03-12T16:56:49.190Z,13.70
2023-03-12T16:59:32.231Z,13.70
2023-03-12T17:02:16.784Z,13.70
2023-03-12T17:04:51.475Z,13.70
2023-03-12T17:07:25.225Z,13.70
2023-03-12T17:09:58.941Z,13.70
2023-03-12T17:12:36.950Z,13.70
2023-03-12T17:15:18.248Z,13.70
2023-03-12T17:17:52.269Z,13.70
2023-03-12T17:20:26.652Z,13.70
2023-03-12T17:23:00.379Z,13.70
2023-03-12T17:25:37.766Z,13.70
2023-03-12T17:28:12.873Z,13.70
2023-03-12T17:30:48.642Z,13.60
2023-03-12T17:33:22.438Z,13.60
2023-03-12T17:36:01.127Z,13.60
2023-03-12T17:38:35.400Z,13.60
2023-03-12T17:41:23.723Z,13.60
2023-03-12T17:44:02.171Z,13.60
2023-03-12T17:46:40.710Z,13.60
2023-03-12T17:49:20.828Z,13.60
2023-03-12T17:51:54.355Z,13.60
2023-03-12T17:54:27.959Z,13.50
2023-03-12T17:57:01.491Z,13.50
2023-03-12T17:59:35.138Z,13.50
2023-03-12T18:02:14.226Z,13.50
2023-03-12T18:04:48.039Z,13.50
2023-03-12T18:07:21.761Z,13.50
2023-03-12T18:09:55.555Z,13.50
2023-03-12T18:12:29.610Z,13.50
2023-03-12T18:15:03.365Z,13.50
2023-03-12T18:17:38.713Z,13.50
2023-03-12T18:20:21.308Z,13.50
2023-03-12T18:22:59.803Z,13.40
2023-03-12T18:25:33.467Z,13.40
2023-03-12T18:28:08.274Z,13.40
2023-03-12T18:30:41.955Z,13.40
2023-03-12T18:33:18.070Z,13.40
2023-03-12T18:35:54.219Z,13.40
2023-03-12T18:38:28.725Z,13.40
2023-03-12T18:41:06.843Z,13.40
2023-03-12T18:43:41.464Z,13.40
2023-03-12T18:46:15.360Z,13.40
2023-03-12T18:48:51.830Z,13.40
2023-03-12T18:51:25.532Z,13.40
2023-03-12T18:53:59.558Z,13.40
2023-03-12T18:56:33.246Z,13.30
2023-03-12T18:59:06.954Z,13.40
2023-03-12T19:01:40.846Z,13.30
2023-03-12T19:04:19.646Z,13.30
2023-03-12T19:06:53.193Z,13.30
2023-03-12T19:09:27.486Z,13.30
2023-03-12T19:12:01.119Z,13.30
2023-03-12T19:14:35.462Z,13.30
2023-03-12T19:17:09.037Z,13.30
2023-03-12T19:19:44.481Z,13.30
2023-03-12T19:22:18.422Z,13.30
2023-03-12T19:24:52.552Z,13.30
2023-03-12T19:27:27.249Z,13.30
2023-03-12T19:30:02.676Z,13.30
2023-03-12T19:32:43.706Z,13.30
2023-03-12T19:35:19.609Z,13.30
2023-03-12T19:37:53.688Z,13.30
2023-03-12T19:40:27.508Z,13.30
2023-03-12T19:43:01.716Z,13.30
2023-03-12T19:45:38.135Z,13.30
2023-03-12T19:48:11.876Z,13.30
2023-03-12T19:50:46.730Z,13.30
2023-03-12T19:53:20.936Z,13.30
2023-03-12T19:55:54.640Z,13.30
2023-03-12T19:58:28.654Z,13.30
2023-03-12T20:01:02.838Z,13.30
2023-03-12T20:03:43.397Z,13.30
2023-03-12T20:06:18.714Z,13.30
2023-03-12T20:08:53.471Z,13.30
2023-03-12T20:11:26.929Z,13.30
2023-03-12T20:14:01.000Z,13.30
2023-03-12T20:16:34.751Z,13.30
2023-03-12T20:19:08.584Z,13.30
2023-03-12T20:21:44.713Z,13.30
2023-03-12T20:24:19.900Z,13.30
2023-03-12T20:26:53.501Z,13.30
2023-03-12T20:29:27.380Z,13.30
2023-03-12T20:32:01.398Z,13.30
2023-03-12T20:34:34.892Z,13.30
2023-03-12T20:37:10.188Z,13.30
2023-03-12T20:39:44.647Z,13.30
2023-03-12T20:42:18.256Z,13.30
2023-03-12T20:44:52.028Z,13.30
2023-03-12T20:47:25.577Z,13.30
2023-03-12T20:49:59.781Z,13.30
2023-03-12T20:52:35.298Z,13.30
2023-03-12T20:55:10.157Z,13.30
2023-03-12T20:57:43.881Z,13.30
2023-03-12T21:00:21.895Z,13.30
2023-03-12T21:02:55.780Z,13.30
2023-03-12T21:05:29.990Z,13.30
2023-03-12T21:08:06.297Z,13.30
2023-03-12T21:10:40.558Z,13.30
2023-03-12T21:13:14.277Z,13.30
2023-03-12T21:15:48.374Z,13.30
2023-03-12T21:18:22.007Z,13.40
2023-03-12T21:20:56.123Z,13.30
2023-03-12T21:23:31.366Z,13.30
2023-03-12T21:26:09.408Z,13.30
2023-03-12T21:28:43.083Z,13.30
2023-03-12T21:31:19.087Z,13.30
2023-03-12T21:33:56.704Z,13.30
2023-03-12T21:36:31.630Z,13.30
2023-03-12T21:39:07.159Z,13.30
2023-03-12T21:41:41.195Z,13.30
2023-03-12T21:44:16.594Z,13.30
2023-03-12T21:46:50.602Z,13.30
2023-03-12T21:49:24.498Z,13.30
2023-03-12T21:51:59.181Z,13.30
2023-03-12T21:54:36.958Z,13.30
2023-03-12T21:57:10.430Z,13.30
2023-03-12T21:59:44.482Z,13.20
2023-03-12T22:02:19.268Z,13.20
2023-03-12T22:04:53.617Z,13.20
2023-03-12T22:07:29.607Z,13.20
2023-03-12T22:10:05.820Z,13.20
2023-03-12T22:12:40.174Z,13.20
2023-03-12T22:15:13.721Z,13.20
2023-03-12T22:17:47.614Z,13.20
2023-03-12T22:20:21.875Z,13.20
2023-03-12T22:22:55.430Z,13.20
2023-03-12T22:25:30.542Z,13.20
2023-03-12T22:28:04.111Z,13.20
2023-03-12T22:30:41.738Z,13.20
2023-03-12T22:33:16.026Z,13.20
2023-03-12T22:35:50.594Z,13.20
2023-03-12T22:38:25.459Z,13.20
2023-03-12T22:41:00.506Z,13.20
2023-03-12T22:43:34.195Z,13.20
2023-03-12T22:46:07.747Z,13.20
2023-03-12T22:48:41.675Z,13.20
2023-03-12T22:51:16.072Z,13.20
2023-03-12T22:53:49.928Z,13.20
2023-03-12T22:56:25.716Z,13.20
2023-03-12T22:58:59.145Z,13.20
2023-03-12T23:01:32.924Z,13.20
2023-03-12T23:04:06.946Z,13.20
2023-03-12T23:06:40.666Z,13.20
2023-03-12T23:09:14.304Z,13.20
2023-03-12T23:11:49.149Z,13.20
2023-03-12T23:14:23.106Z,13.20
2023-03-12T23:16:57.660Z,13.20
2023-03-12T23:19:36.410Z,13.20
2023-03-12T23:22:10.467Z,13.20
2023-03-12T23:24:44.197Z,13.20
2023-03-12T23:27:19.633Z,13.20
2023-03-12T23:29:53.472Z,13.20
2023-03-12T23:32:27.352Z,13.30
2023-03-12T23:35:00.996Z,13.30
2023-03-12T23:37:34.911Z,13.20
2023-03-12T23:40:11.286Z,13.50
2023-03-12T23:42:46.565Z,13.20
2023-03-12T23:45:20.561Z,13.20
2023-03-12T23:47:54.248Z,13.30
2023-03-12T23:50:27.822Z,13.30
2023-03-12T23:53:02.950Z,13.30
2023-03-12T23:55:36.792Z,13.30
2023-03-12T23:58:12.370Z,13.30
